sensor_id;sensor_type;location;lat;lon;timestamp;P1;durP1;ratioP1;P2;durP2;ratioP2
3781;SDS011;6881;49.962;7.718;2022-11-20T00:00:48;23.87;;;12.50;;
3781;SDS011;6881;49.962;7.718;2022-11-20T00:03:13;27.47;;;14.23;;
3781;SDS011;6881;49.962;7.718;2022-11-20T00:05:39;22.93;;;13.43;;
3781;SDS011;6881;49.962;7.718;2022-11-20T00:08:04;27.70;;;14.90;;
3781;SDS011;6881;49.962;7.718;2022-11-20T00:10:30;31.43;;;14.90;;
3781;SDS011;6881;49.962;7.718;2022-11-20T00:12:57;31.03;;;16.40;;
3781;SDS011;6881;49.962;7.718;2022-11-20T00:15:22;23.47;;;12.00;;
3781;SDS011;6881;49.962;7.718;2022-11-20T00:17:48;25.40;;;14.27;;
3781;SDS011;6881;49.962;7.718;2022-11-20T00:20:13;21.00;;;11.67;;
3781;SDS011;6881;49.962;7.718;2022-11-20T00:22:39;25.47;;;13.23;;
3781;SDS011;6881;49.962;7.718;2022-11-20T00:25:04;26.03;;;13.57;;
3781;SDS011;6881;49.962;7.718;2022-11-20T00:27:30;23.13;;;12.27;;
3781;SDS011;6881;49.962;7.718;2022-11-20T00:29:55;28.17;;;14.50;;
3781;SDS011;6881;49.962;7.718;2022-11-20T00:32:20;28.57;;;13.83;;
3781;SDS011;6881;49.962;7.718;2022-11-20T00:34:46;28.37;;;14.07;;
3781;SDS011;6881;49.962;7.718;2022-11-20T00:37:11;18.57;;;10.90;;
3781;SDS011;6881;49.962;7.718;2022-11-20T00:39:36;24.03;;;14.70;;
3781;SDS011;6881;49.962;7.718;2022-11-20T00:42:02;30.10;;;14.00;;
3781;SDS011;6881;49.962;7.718;2022-11-20T00:44:27;22.27;;;10.30;;
3781;SDS011;6881;49.962;7.718;2022-11-20T00:46:52;26.30;;;13.43;;
3781;SDS011;6881;49.962;7.718;2022-11-20T00:49:18;20.23;;;10.77;;
3781;SDS011;6881;49.962;7.718;2022-11-20T00:51:43;21.10;;;11.37;;
3781;SDS011;6881;49.962;7.718;2022-11-20T00:54:09;16.90;;;9.83;;
3781;SDS011;6881;49.962;7.718;2022-11-20T00:56:34;20.60;;;10.60;;
3781;SDS011;6881;49.962;7.718;2022-11-20T00:59:00;16.97;;;9.87;;
3781;SDS011;6881;49.962;7.718;2022-11-20T01:01:26;20.17;;;11.47;;
3781;SDS011;6881;49.962;7.718;2022-11-20T01:03:53;15.30;;;10.80;;
3781;SDS011;6881;49.962;7.718;2022-11-20T01:06:21;23.30;;;12.20;;
3781;SDS011;6881;49.962;7.718;2022-11-20T01:08:48;27.50;;;12.37;;
3781;SDS011;6881;49.962;7.718;2022-11-20T01:11:21;20.57;;;10.80;;
3781;SDS011;6881;49.962;7.718;2022-11-20T01:13:58;21.90;;;12.07;;
3781;SDS011;6881;49.962;7.718;2022-11-20T01:18:51;20.47;;;11.27;;
3781;SDS011;6881;49.962;7.718;2022-11-20T01:21:21;23.17;;;11.37;;
3781;SDS011;6881;49.962;7.718;2022-11-20T01:23:48;20.07;;;10.57;;
3781;SDS011;6881;49.962;7.718;2022-11-20T01:26:15;23.83;;;12.73;;
3781;SDS011;6881;49.962;7.718;2022-11-20T01:28:43;21.90;;;11.20;;
3781;SDS011;6881;49.962;7.718;2022-11-20T01:31:19;25.53;;;11.27;;
3781;SDS011;6881;49.962;7.718;2022-11-20T01:33:47;26.10;;;12.30;;
3781;SDS011;6881;49.962;7.718;2022-11-20T01:36:14;25.13;;;11.07;;
3781;SDS011;6881;49.962;7.718;2022-11-20T01:38:40;25.73;;;12.67;;
3781;SDS011;6881;49.962;7.718;2022-11-20T01:41:06;26.03;;;11.63;;
3781;SDS011;6881;49.962;7.718;2022-11-20T01:43:32;14.90;;;9.60;;
3781;SDS011;6881;49.962;7.718;2022-11-20T01:46:02;20.33;;;10.80;;
3781;SDS011;6881;49.962;7.718;2022-11-20T01:53:55;17.17;;;10.30;;
3781;SDS011;6881;49.962;7.718;2022-11-20T01:56:22;19.20;;;9.80;;
3781;SDS011;6881;49.962;7.718;2022-11-20T01:58:50;18.10;;;10.20;;
3781;SDS011;6881;49.962;7.718;2022-11-20T02:01:17;18.43;;;10.03;;
3781;SDS011;6881;49.962;7.718;2022-11-20T02:03:42;17.60;;;8.63;;
3781;SDS011;6881;49.962;7.718;2022-11-20T02:08:53;19.37;;;9.47;;
3781;SDS011;6881;49.962;7.718;2022-11-20T02:11:19;20.03;;;11.63;;
3781;SDS011;6881;49.962;7.718;2022-11-20T02:13:44;24.90;;;11.63;;
3781;SDS011;6881;49.962;7.718;2022-11-20T02:16:21;19.27;;;11.40;;
3781;SDS011;6881;49.962;7.718;2022-11-20T02:18:49;19.90;;;10.77;;
3781;SDS011;6881;49.962;7.718;2022-11-20T02:26:35;21.80;;;10.40;;
3781;SDS011;6881;49.962;7.718;2022-11-20T02:29:05;19.00;;;9.80;;
3781;SDS011;6881;49.962;7.718;2022-11-20T02:31:35;18.90;;;9.37;;
3781;SDS011;6881;49.962;7.718;2022-11-20T02:34:01;22.33;;;11.77;;
3781;SDS011;6881;49.962;7.718;2022-11-20T02:36:27;18.57;;;10.80;;
3781;SDS011;6881;49.962;7.718;2022-11-20T02:38:53;22.60;;;11.97;;
3781;SDS011;6881;49.962;7.718;2022-11-20T02:41:19;23.27;;;12.07;;
3781;SDS011;6881;49.962;7.718;2022-11-20T02:43:44;23.53;;;12.23;;
3781;SDS011;6881;49.962;7.718;2022-11-20T02:46:10;19.90;;;12.23;;
3781;SDS011;6881;49.962;7.718;2022-11-20T02:48:35;23.97;;;12.53;;
3781;SDS011;6881;49.962;7.718;2022-11-20T02:51:01;23.10;;;10.13;;
3781;SDS011;6881;49.962;7.718;2022-11-20T02:53:26;23.27;;;11.33;;
3781;SDS011;6881;49.962;7.718;2022-11-20T02:55:52;18.40;;;9.93;;
3781;SDS011;6881;49.962;7.718;2022-11-20T02:58:17;20.53;;;11.33;;
3781;SDS011;6881;49.962;7.718;2022-11-20T03:00:42;19.40;;;10.77;;
3781;SDS011;6881;49.962;7.718;2022-11-20T03:03:08;18.57;;;10.20;;
3781;SDS011;6881;49.962;7.718;2022-11-20T03:05:33;21.10;;;11.37;;
3781;SDS011;6881;49.962;7.718;2022-11-20T03:07:58;19.00;;;10.70;;
3781;SDS011;6881;49.962;7.718;2022-11-20T03:10:24;19.33;;;11.17;;
3781;SDS011;6881;49.962;7.718;2022-11-20T03:12:55;21.20;;;12.17;;
3781;SDS011;6881;49.962;7.718;2022-11-20T03:15:24;24.43;;;12.10;;
3781;SDS011;6881;49.962;7.718;2022-11-20T03:17:53;19.53;;;11.57;;
3781;SDS011;6881;49.962;7.718;2022-11-20T03:20:19;20.17;;;11.10;;
3781;SDS011;6881;49.962;7.718;2022-11-20T03:22:45;25.57;;;12.00;;
3781;SDS011;6881;49.962;7.718;2022-11-20T03:25:10;21.53;;;11.20;;
3781;SDS011;6881;49.962;7.718;2022-11-20T03:27:35;21.33;;;11.40;;
3781;SDS011;6881;49.962;7.718;2022-11-20T03:30:01;25.40;;;11.43;;
3781;SDS011;6881;49.962;7.718;2022-11-20T03:32:26;16.43;;;10.10;;
3781;SDS011;6881;49.962;7.718;2022-11-20T03:34:52;18.37;;;10.10;;
3781;SDS011;6881;49.962;7.718;2022-11-20T03:37:17;21.80;;;11.07;;
3781;SDS011;6881;49.962;7.718;2022-11-20T03:39:42;15.17;;;8.50;;
3781;SDS011;6881;49.962;7.718;2022-11-20T03:42:08;20.30;;;10.67;;
3781;SDS011;6881;49.962;7.718;2022-11-20T03:44:53;15.37;;;9.67;;
3781;SDS011;6881;49.962;7.718;2022-11-20T03:47:19;22.07;;;11.10;;
3781;SDS011;6881;49.962;7.718;2022-11-20T03:49:44;24.40;;;13.07;;
3781;SDS011;6881;49.962;7.718;2022-11-20T03:52:10;25.57;;;12.27;;
3781;SDS011;6881;49.962;7.718;2022-11-20T03:54:35;24.00;;;10.00;;
3781;SDS011;6881;49.962;7.718;2022-11-20T03:57:00;18.93;;;10.40;;
3781;SDS011;6881;49.962;7.718;2022-11-20T03:59:26;21.20;;;11.63;;
3781;SDS011;6881;49.962;7.718;2022-11-20T04:01:51;20.80;;;11.57;;
3781;SDS011;6881;49.962;7.718;2022-11-20T04:04:16;28.00;;;14.67;;
3781;SDS011;6881;49.962;7.718;2022-11-20T04:06:42;21.80;;;11.37;;
3781;SDS011;6881;49.962;7.718;2022-11-20T04:09:07;24.43;;;11.50;;
3781;SDS011;6881;49.962;7.718;2022-11-20T04:11:33;23.40;;;11.93;;
3781;SDS011;6881;49.962;7.718;2022-11-20T04:14:02;20.43;;;10.47;;
3781;SDS011;6881;49.962;7.718;2022-11-20T04:16:29;21.57;;;13.20;;
3781;SDS011;6881;49.962;7.718;2022-11-20T04:18:57;19.10;;;10.20;;
3781;SDS011;6881;49.962;7.718;2022-11-20T04:21:23;21.27;;;12.50;;
3781;SDS011;6881;49.962;7.718;2022-11-20T04:23:50;23.40;;;10.53;;
3781;SDS011;6881;49.962;7.718;2022-11-20T04:26:16;19.63;;;11.07;;
3781;SDS011;6881;49.962;7.718;2022-11-20T04:28:41;19.63;;;9.90;;
3781;SDS011;6881;49.962;7.718;2022-11-20T04:33:36;22.13;;;10.57;;
3781;SDS011;6881;49.962;7.718;2022-11-20T04:36:12;20.00;;;10.47;;
3781;SDS011;6881;49.962;7.718;2022-11-20T04:38:45;19.17;;;10.60;;
3781;SDS011;6881;49.962;7.718;2022-11-20T04:41:17;28.17;;;11.53;;
3781;SDS011;6881;49.962;7.718;2022-11-20T04:43:48;23.00;;;11.93;;
3781;SDS011;6881;49.962;7.718;2022-11-20T04:46:15;19.17;;;9.90;;
3781;SDS011;6881;49.962;7.718;2022-11-20T04:48:44;19.20;;;9.63;;
3781;SDS011;6881;49.962;7.718;2022-11-20T04:51:09;15.80;;;9.00;;
3781;SDS011;6881;49.962;7.718;2022-11-20T04:53:35;22.27;;;10.87;;
3781;SDS011;6881;49.962;7.718;2022-11-20T04:56:01;19.33;;;9.80;;
3781;SDS011;6881;49.962;7.718;2022-11-20T04:58:30;21.07;;;10.17;;
3781;SDS011;6881;49.962;7.718;2022-11-20T05:01:02;15.10;;;7.80;;
3781;SDS011;6881;49.962;7.718;2022-11-20T05:03:29;15.77;;;8.80;;
3781;SDS011;6881;49.962;7.718;2022-11-20T05:05:54;17.80;;;8.77;;
3781;SDS011;6881;49.962;7.718;2022-11-20T05:08:20;18.73;;;9.57;;
3781;SDS011;6881;49.962;7.718;2022-11-20T05:10:45;12.70;;;7.30;;
3781;SDS011;6881;49.962;7.718;2022-11-20T05:13:11;10.47;;;6.13;;
3781;SDS011;6881;49.962;7.718;2022-11-20T05:15:37;12.77;;;6.40;;
3781;SDS011;6881;49.962;7.718;2022-11-20T05:18:03;12.80;;;7.93;;
3781;SDS011;6881;49.962;7.718;2022-11-20T05:20:28;12.17;;;7.43;;
3781;SDS011;6881;49.962;7.718;2022-11-20T05:22:56;15.20;;;7.20;;
3781;SDS011;6881;49.962;7.718;2022-11-20T05:25:22;17.97;;;9.70;;
3781;SDS011;6881;49.962;7.718;2022-11-20T05:27:47;17.37;;;10.37;;
3781;SDS011;6881;49.962;7.718;2022-11-20T05:30:13;24.07;;;12.93;;
3781;SDS011;6881;49.962;7.718;2022-11-20T05:32:38;19.87;;;10.17;;
3781;SDS011;6881;49.962;7.718;2022-11-20T05:35:04;16.53;;;8.60;;
3781;SDS011;6881;49.962;7.718;2022-11-20T05:37:29;12.83;;;8.00;;
3781;SDS011;6881;49.962;7.718;2022-11-20T05:39:55;18.50;;;10.37;;
3781;SDS011;6881;49.962;7.718;2022-11-20T05:42:20;15.40;;;9.30;;
3781;SDS011;6881;49.962;7.718;2022-11-20T05:45:01;14.20;;;8.63;;
3781;SDS011;6881;49.962;7.718;2022-11-20T05:47:31;12.10;;;7.23;;
3781;SDS011;6881;49.962;7.718;2022-11-20T05:49:57;15.00;;;7.53;;
3781;SDS011;6881;49.962;7.718;2022-11-20T05:52:23;11.20;;;7.40;;
3781;SDS011;6881;49.962;7.718;2022-11-20T05:54:48;16.57;;;8.80;;
3781;SDS011;6881;49.962;7.718;2022-11-20T05:57:14;14.30;;;8.50;;
3781;SDS011;6881;49.962;7.718;2022-11-20T05:59:39;16.30;;;8.60;;
3781;SDS011;6881;49.962;7.718;2022-11-20T06:02:04;15.30;;;8.47;;
3781;SDS011;6881;49.962;7.718;2022-11-20T06:04:30;14.73;;;8.10;;
3781;SDS011;6881;49.962;7.718;2022-11-20T06:06:55;10.20;;;7.60;;
3781;SDS011;6881;49.962;7.718;2022-11-20T06:09:21;15.03;;;8.93;;
3781;SDS011;6881;49.962;7.718;2022-11-20T06:11:46;13.23;;;8.00;;
3781;SDS011;6881;49.962;7.718;2022-11-20T06:14:11;14.10;;;8.53;;
3781;SDS011;6881;49.962;7.718;2022-11-20T06:16:37;17.87;;;8.40;;
3781;SDS011;6881;49.962;7.718;2022-11-20T06:19:02;10.60;;;6.97;;
3781;SDS011;6881;49.962;7.718;2022-11-20T06:21:27;13.63;;;7.83;;
3781;SDS011;6881;49.962;7.718;2022-11-20T06:23:53;12.70;;;7.87;;
3781;SDS011;6881;49.962;7.718;2022-11-20T06:26:20;16.57;;;8.67;;
3781;SDS011;6881;49.962;7.718;2022-11-20T06:28:49;9.60;;;6.27;;
3781;SDS011;6881;49.962;7.718;2022-11-20T06:31:16;11.90;;;7.93;;
3781;SDS011;6881;49.962;7.718;2022-11-20T06:33:43;16.60;;;9.73;;
3781;SDS011;6881;49.962;7.718;2022-11-20T06:36:09;15.27;;;8.60;;
3781;SDS011;6881;49.962;7.718;2022-11-20T06:38:36;15.83;;;8.20;;
3781;SDS011;6881;49.962;7.718;2022-11-20T06:41:01;17.20;;;8.67;;
3781;SDS011;6881;49.962;7.718;2022-11-20T06:43:28;15.73;;;9.00;;
3781;SDS011;6881;49.962;7.718;2022-11-20T06:45:54;16.70;;;9.20;;
3781;SDS011;6881;49.962;7.718;2022-11-20T06:48:20;18.67;;;8.50;;
3781;SDS011;6881;49.962;7.718;2022-11-20T06:50:46;11.67;;;7.73;;
3781;SDS011;6881;49.962;7.718;2022-11-20T06:53:11;16.37;;;9.93;;
3781;SDS011;6881;49.962;7.718;2022-11-20T06:55:37;15.17;;;8.57;;
3781;SDS011;6881;49.962;7.718;2022-11-20T06:58:07;12.77;;;9.00;;
3781;SDS011;6881;49.962;7.718;2022-11-20T07:00:32;15.50;;;9.20;;
3781;SDS011;6881;49.962;7.718;2022-11-20T07:02:58;15.70;;;8.90;;
3781;SDS011;6881;49.962;7.718;2022-11-20T07:05:23;14.20;;;8.17;;
3781;SDS011;6881;49.962;7.718;2022-11-20T07:07:48;14.43;;;8.57;;
3781;SDS011;6881;49.962;7.718;2022-11-20T07:10:14;20.20;;;9.50;;
3781;SDS011;6881;49.962;7.718;2022-11-20T07:12:39;18.83;;;12.50;;
3781;SDS011;6881;49.962;7.718;2022-11-20T07:15:05;17.37;;;10.87;;
3781;SDS011;6881;49.962;7.718;2022-11-20T07:17:31;16.97;;;10.30;;
3781;SDS011;6881;49.962;7.718;2022-11-20T07:19:56;19.80;;;9.80;;
3781;SDS011;6881;49.962;7.718;2022-11-20T07:22:21;12.63;;;7.07;;
3781;SDS011;6881;49.962;7.718;2022-11-20T07:24:47;14.40;;;7.93;;
3781;SDS011;6881;49.962;7.718;2022-11-20T07:27:13;17.73;;;7.90;;
3781;SDS011;6881;49.962;7.718;2022-11-20T07:29:38;17.10;;;8.00;;
3781;SDS011;6881;49.962;7.718;2022-11-20T07:32:04;17.07;;;9.07;;
3781;SDS011;6881;49.962;7.718;2022-11-20T07:34:29;16.77;;;8.60;;
3781;SDS011;6881;49.962;7.718;2022-11-20T07:36:55;14.17;;;8.13;;
3781;SDS011;6881;49.962;7.718;2022-11-20T07:39:20;16.27;;;8.47;;
3781;SDS011;6881;49.962;7.718;2022-11-20T07:41:45;17.00;;;9.17;;
3781;SDS011;6881;49.962;7.718;2022-11-20T07:44:11;19.77;;;10.10;;
3781;SDS011;6881;49.962;7.718;2022-11-20T07:46:36;18.60;;;9.30;;
3781;SDS011;6881;49.962;7.718;2022-11-20T07:49:01;23.50;;;11.90;;
3781;SDS011;6881;49.962;7.718;2022-11-20T07:51:27;20.17;;;12.40;;
3781;SDS011;6881;49.962;7.718;2022-11-20T07:53:52;17.70;;;10.53;;
3781;SDS011;6881;49.962;7.718;2022-11-20T07:56:18;21.30;;;11.40;;
3781;SDS011;6881;49.962;7.718;2022-11-20T07:58:43;26.10;;;13.47;;
3781;SDS011;6881;49.962;7.718;2022-11-20T08:01:08;23.27;;;13.90;;
3781;SDS011;6881;49.962;7.718;2022-11-20T08:03:34;20.60;;;12.80;;
3781;SDS011;6881;49.962;7.718;2022-11-20T08:06:02;22.70;;;13.90;;
3781;SDS011;6881;49.962;7.718;2022-11-20T08:08:28;35.37;;;18.00;;
3781;SDS011;6881;49.962;7.718;2022-11-20T08:10:53;30.00;;;16.67;;
3781;SDS011;6881;49.962;7.718;2022-11-20T08:13:39;26.80;;;14.70;;
3781;SDS011;6881;49.962;7.718;2022-11-20T08:16:23;21.83;;;13.67;;
3781;SDS011;6881;49.962;7.718;2022-11-20T08:18:48;23.40;;;12.60;;
3781;SDS011;6881;49.962;7.718;2022-11-20T08:21:14;20.07;;;12.03;;
3781;SDS011;6881;49.962;7.718;2022-11-20T08:23:40;23.43;;;13.70;;
3781;SDS011;6881;49.962;7.718;2022-11-20T08:26:05;20.53;;;11.77;;
3781;SDS011;6881;49.962;7.718;2022-11-20T08:28:30;19.60;;;12.57;;
3781;SDS011;6881;49.962;7.718;2022-11-20T08:30:59;26.47;;;12.80;;
3781;SDS011;6881;49.962;7.718;2022-11-20T08:33:25;21.70;;;11.90;;
3781;SDS011;6881;49.962;7.718;2022-11-20T08:35:50;17.57;;;11.10;;
3781;SDS011;6881;49.962;7.718;2022-11-20T08:38:16;18.57;;;10.57;;
3781;SDS011;6881;49.962;7.718;2022-11-20T08:40:41;17.20;;;10.90;;
3781;SDS011;6881;49.962;7.718;2022-11-20T08:43:26;19.90;;;10.60;;
3781;SDS011;6881;49.962;7.718;2022-11-20T08:45:52;17.53;;;10.60;;
3781;SDS011;6881;49.962;7.718;2022-11-20T08:48:17;19.73;;;10.57;;
3781;SDS011;6881;49.962;7.718;2022-11-20T08:50:42;17.87;;;10.33;;
3781;SDS011;6881;49.962;7.718;2022-11-20T08:53:08;18.63;;;10.00;;
3781;SDS011;6881;49.962;7.718;2022-11-20T08:55:33;17.57;;;10.17;;
3781;SDS011;6881;49.962;7.718;2022-11-20T08:58:04;14.33;;;9.10;;
3781;SDS011;6881;49.962;7.718;2022-11-20T09:00:29;16.67;;;10.53;;
3781;SDS011;6881;49.962;7.718;2022-11-20T09:02:55;14.23;;;10.67;;
3781;SDS011;6881;49.962;7.718;2022-11-20T09:05:20;18.10;;;10.17;;
3781;SDS011;6881;49.962;7.718;2022-11-20T09:07:45;13.27;;;9.30;;
3781;SDS011;6881;49.962;7.718;2022-11-20T09:10:11;11.10;;;8.20;;
3781;SDS011;6881;49.962;7.718;2022-11-20T09:12:36;10.70;;;8.20;;
3781;SDS011;6881;49.962;7.718;2022-11-20T09:15:01;12.17;;;9.30;;
3781;SDS011;6881;49.962;7.718;2022-11-20T09:17:27;12.83;;;9.40;;
3781;SDS011;6881;49.962;7.718;2022-11-20T09:19:52;14.50;;;10.07;;
3781;SDS011;6881;49.962;7.718;2022-11-20T09:22:18;11.87;;;9.27;;
3781;SDS011;6881;49.962;7.718;2022-11-20T09:24:43;15.10;;;9.37;;
3781;SDS011;6881;49.962;7.718;2022-11-20T09:27:08;16.97;;;11.27;;
3781;SDS011;6881;49.962;7.718;2022-11-20T09:29:34;15.80;;;9.67;;
3781;SDS011;6881;49.962;7.718;2022-11-20T09:31:59;13.80;;;11.07;;
3781;SDS011;6881;49.962;7.718;2022-11-20T09:34:24;17.37;;;10.63;;
3781;SDS011;6881;49.962;7.718;2022-11-20T09:36:50;14.87;;;9.60;;
3781;SDS011;6881;49.962;7.718;2022-11-20T09:39:15;15.23;;;9.73;;
3781;SDS011;6881;49.962;7.718;2022-11-20T09:41:47;15.70;;;9.93;;
3781;SDS011;6881;49.962;7.718;2022-11-20T09:44:40;12.33;;;8.67;;
3781;SDS011;6881;49.962;7.718;2022-11-20T09:55:19;16.70;;;11.50;;
3781;SDS011;6881;49.962;7.718;2022-11-20T09:57:46;15.10;;;10.77;;
3781;SDS011;6881;49.962;7.718;2022-11-20T10:00:14;14.53;;;10.50;;
3781;SDS011;6881;49.962;7.718;2022-11-20T10:02:44;13.50;;;10.27;;
3781;SDS011;6881;49.962;7.718;2022-11-20T10:10:49;22.30;;;12.30;;
3781;SDS011;6881;49.962;7.718;2022-11-20T10:22:14;21.80;;;14.47;;
3781;SDS011;6881;49.962;7.718;2022-11-20T10:25:06;19.10;;;11.90;;
3781;SDS011;6881;49.962;7.718;2022-11-20T10:27:51;18.53;;;12.47;;
3781;SDS011;6881;49.962;7.718;2022-11-20T10:30:42;15.97;;;9.97;;
3781;SDS011;6881;49.962;7.718;2022-11-20T10:33:16;20.10;;;13.20;;
3781;SDS011;6881;49.962;7.718;2022-11-20T10:35:45;21.60;;;13.80;;
3781;SDS011;6881;49.962;7.718;2022-11-20T10:38:39;17.50;;;11.87;;
3781;SDS011;6881;49.962;7.718;2022-11-20T10:41:07;20.17;;;11.97;;
3781;SDS011;6881;49.962;7.718;2022-11-20T10:43:58;20.77;;;12.33;;
3781;SDS011;6881;49.962;7.718;2022-11-20T10:46:29;25.30;;;14.10;;
3781;SDS011;6881;49.962;7.718;2022-11-20T10:49:02;16.57;;;11.40;;
3781;SDS011;6881;49.962;7.718;2022-11-20T10:51:32;16.47;;;8.77;;
3781;SDS011;6881;49.962;7.718;2022-11-20T10:54:12;15.93;;;10.50;;
3781;SDS011;6881;49.962;7.718;2022-11-20T10:56:50;15.10;;;9.63;;
3781;SDS011;6881;49.962;7.718;2022-11-20T11:01:54;12.40;;;8.97;;
3781;SDS011;6881;49.962;7.718;2022-11-20T11:07:12;14.43;;;9.50;;
3781;SDS011;6881;49.962;7.718;2022-11-20T11:09:44;17.33;;;8.90;;
3781;SDS011;6881;49.962;7.718;2022-11-20T11:12:13;15.07;;;8.93;;
3781;SDS011;6881;49.962;7.718;2022-11-20T11:14:48;14.17;;;8.97;;
3781;SDS011;6881;49.962;7.718;2022-11-20T11:22:30;11.57;;;6.60;;
3781;SDS011;6881;49.962;7.718;2022-11-20T11:24:58;12.33;;;8.27;;
3781;SDS011;6881;49.962;7.718;2022-11-20T11:27:23;9.90;;;7.43;;
3781;SDS011;6881;49.962;7.718;2022-11-20T11:29:49;12.00;;;7.50;;
3781;SDS011;6881;49.962;7.718;2022-11-20T11:32:15;12.53;;;7.67;;
3781;SDS011;6881;49.962;7.718;2022-11-20T11:34:44;11.57;;;7.43;;
3781;SDS011;6881;49.962;7.718;2022-11-20T11:37:11;10.33;;;8.17;;
3781;SDS011;6881;49.962;7.718;2022-11-20T11:39:40;7.93;;;6.57;;
3781;SDS011;6881;49.962;7.718;2022-11-20T11:42:07;8.30;;;6.53;;
3781;SDS011;6881;49.962;7.718;2022-11-20T11:44:36;11.27;;;8.83;;
3781;SDS011;6881;49.962;7.718;2022-11-20T11:47:29;8.27;;;6.37;;
3781;SDS011;6881;49.962;7.718;2022-11-20T11:50:00;8.87;;;5.50;;
3781;SDS011;6881;49.962;7.718;2022-11-20T12:07:01;6.63;;;4.60;;
3781;SDS011;6881;49.962;7.718;2022-11-20T12:09:34;6.10;;;4.70;;
3781;SDS011;6881;49.962;7.718;2022-11-20T12:12:08;5.70;;;5.07;;
3781;SDS011;6881;49.962;7.718;2022-11-20T12:14:39;7.87;;;5.40;;
3781;SDS011;6881;49.962;7.718;2022-11-20T12:17:08;11.33;;;7.37;;
3781;SDS011;6881;49.962;7.718;2022-11-20T12:19:36;7.67;;;4.50;;
3781;SDS011;6881;49.962;7.718;2022-11-20T12:24:32;3.80;;;3.33;;
3781;SDS011;6881;49.962;7.718;2022-11-20T12:43:23;3.07;;;2.77;;
3781;SDS011;6881;49.962;7.718;2022-11-20T12:48:57;2.43;;;2.20;;
3781;SDS011;6881;49.962;7.718;2022-11-20T12:51:35;5.20;;;4.70;;
3781;SDS011;6881;49.962;7.718;2022-11-20T12:57:01;7.43;;;3.77;;
3781;SDS011;6881;49.962;7.718;2022-11-20T13:02:14;6.50;;;2.30;;
3781;SDS011;6881;49.962;7.718;2022-11-20T13:07:47;2.90;;;2.43;;
3781;SDS011;6881;49.962;7.718;2022-11-20T13:10:14;4.53;;;2.77;;
3781;SDS011;6881;49.962;7.718;2022-11-20T13:13:23;5.20;;;2.83;;
3781;SDS011;6881;49.962;7.718;2022-11-20T13:16:10;7.53;;;3.90;;
3781;SDS011;6881;49.962;7.718;2022-11-20T13:18:41;3.60;;;2.60;;
3781;SDS011;6881;49.962;7.718;2022-11-20T13:27:04;1.13;;;1.00;;
3781;SDS011;6881;49.962;7.718;2022-11-20T13:29:44;2.33;;;1.47;;
3781;SDS011;6881;49.962;7.718;2022-11-20T13:34:38;3.90;;;1.57;;
3781;SDS011;6881;49.962;7.718;2022-11-20T13:37:04;2.27;;;1.70;;
3781;SDS011;6881;49.962;7.718;2022-11-20T13:39:31;4.27;;;2.17;;
3781;SDS011;6881;49.962;7.718;2022-11-20T13:44:41;2.43;;;2.03;;
3781;SDS011;6881;49.962;7.718;2022-11-20T13:49:51;4.20;;;2.60;;
3781;SDS011;6881;49.962;7.718;2022-11-20T14:02:35;6.13;;;2.30;;
3781;SDS011;6881;49.962;7.718;2022-11-20T14:05:00;4.27;;;2.97;;
3781;SDS011;6881;49.962;7.718;2022-11-20T14:07:31;9.83;;;6.43;;
3781;SDS011;6881;49.962;7.718;2022-11-20T14:10:01;8.47;;;4.70;;
3781;SDS011;6881;49.962;7.718;2022-11-20T14:12:30;6.33;;;2.57;;
3781;SDS011;6881;49.962;7.718;2022-11-20T14:14:57;2.37;;;2.17;;
3781;SDS011;6881;49.962;7.718;2022-11-20T14:17:24;1.70;;;1.60;;
3781;SDS011;6881;49.962;7.718;2022-11-20T14:20:02;6.40;;;3.10;;
3781;SDS011;6881;49.962;7.718;2022-11-20T14:22:29;4.03;;;2.30;;
3781;SDS011;6881;49.962;7.718;2022-11-20T14:27:42;5.00;;;2.50;;
3781;SDS011;6881;49.962;7.718;2022-11-20T14:30:29;3.10;;;2.77;;
3781;SDS011;6881;49.962;7.718;2022-11-20T14:33:09;2.93;;;2.73;;
3781;SDS011;6881;49.962;7.718;2022-11-20T14:35:37;7.67;;;4.53;;
3781;SDS011;6881;49.962;7.718;2022-11-20T14:38:09;5.87;;;4.27;;
3781;SDS011;6881;49.962;7.718;2022-11-20T14:40:37;2.57;;;2.30;;
3781;SDS011;6881;49.962;7.718;2022-11-20T14:43:16;3.00;;;1.97;;
3781;SDS011;6881;49.962;7.718;2022-11-20T14:45:48;1.97;;;1.70;;
3781;SDS011;6881;49.962;7.718;2022-11-20T14:48:21;3.50;;;2.87;;
3781;SDS011;6881;49.962;7.718;2022-11-20T14:50:49;6.13;;;3.30;;
3781;SDS011;6881;49.962;7.718;2022-11-20T14:53:21;5.63;;;3.90;;
3781;SDS011;6881;49.962;7.718;2022-11-20T14:55:53;6.10;;;3.50;;
3781;SDS011;6881;49.962;7.718;2022-11-20T14:58:21;6.50;;;4.53;;
3781;SDS011;6881;49.962;7.718;2022-11-20T15:01:02;10.00;;;6.70;;
3781;SDS011;6881;49.962;7.718;2022-11-20T15:03:39;9.37;;;6.93;;
3781;SDS011;6881;49.962;7.718;2022-11-20T15:06:06;13.13;;;8.03;;
3781;SDS011;6881;49.962;7.718;2022-11-20T15:08:33;9.13;;;6.07;;
3781;SDS011;6881;49.962;7.718;2022-11-20T15:10:58;9.37;;;5.40;;
3781;SDS011;6881;49.962;7.718;2022-11-20T15:13:25;7.00;;;5.67;;
3781;SDS011;6881;49.962;7.718;2022-11-20T15:15:58;7.10;;;6.40;;
3781;SDS011;6881;49.962;7.718;2022-11-20T15:18:38;5.83;;;5.13;;
3781;SDS011;6881;49.962;7.718;2022-11-20T15:21:16;5.87;;;4.30;;
3781;SDS011;6881;49.962;7.718;2022-11-20T15:23:43;3.50;;;3.20;;
3781;SDS011;6881;49.962;7.718;2022-11-20T15:26:09;3.03;;;2.73;;
3781;SDS011;6881;49.962;7.718;2022-11-20T15:31:02;3.60;;;3.03;;
3781;SDS011;6881;49.962;7.718;2022-11-20T15:33:28;5.00;;;3.70;;
3781;SDS011;6881;49.962;7.718;2022-11-20T15:35:53;7.77;;;3.60;;
3781;SDS011;6881;49.962;7.718;2022-11-20T15:38:19;8.47;;;3.53;;
3781;SDS011;6881;49.962;7.718;2022-11-20T15:40:44;4.40;;;4.00;;
3781;SDS011;6881;49.962;7.718;2022-11-20T15:43:09;9.70;;;7.13;;
3781;SDS011;6881;49.962;7.718;2022-11-20T15:48:21;7.53;;;5.43;;
3781;SDS011;6881;49.962;7.718;2022-11-20T15:53:39;3.13;;;2.83;;
3781;SDS011;6881;49.962;7.718;2022-11-20T15:56:06;3.00;;;2.80;;
3781;SDS011;6881;49.962;7.718;2022-11-20T15:58:31;9.40;;;3.20;;
3781;SDS011;6881;49.962;7.718;2022-11-20T16:00:57;5.00;;;3.50;;
3781;SDS011;6881;49.962;7.718;2022-11-20T16:03:22;6.67;;;4.53;;
3781;SDS011;6881;49.962;7.718;2022-11-20T16:05:48;5.70;;;4.17;;
3781;SDS011;6881;49.962;7.718;2022-11-20T16:08:13;9.40;;;5.20;;
3781;SDS011;6881;49.962;7.718;2022-11-20T16:10:39;4.03;;;3.00;;
3781;SDS011;6881;49.962;7.718;2022-11-20T16:13:10;4.53;;;3.37;;
3781;SDS011;6881;49.962;7.718;2022-11-20T16:15:56;3.47;;;2.57;;
3781;SDS011;6881;49.962;7.718;2022-11-20T16:18:22;6.47;;;3.77;;
3781;SDS011;6881;49.962;7.718;2022-11-20T16:20:49;7.43;;;5.37;;
3781;SDS011;6881;49.962;7.718;2022-11-20T16:23:18;4.50;;;3.43;;
3781;SDS011;6881;49.962;7.718;2022-11-20T16:25:44;6.20;;;3.47;;
3781;SDS011;6881;49.962;7.718;2022-11-20T16:28:10;6.00;;;4.00;;
3781;SDS011;6881;49.962;7.718;2022-11-20T16:30:36;6.20;;;4.10;;
3781;SDS011;6881;49.962;7.718;2022-11-20T16:33:01;4.17;;;2.70;;
3781;SDS011;6881;49.962;7.718;2022-11-20T16:35:28;10.87;;;4.93;;
3781;SDS011;6881;49.962;7.718;2022-11-20T16:37:57;7.60;;;5.13;;
3781;SDS011;6881;49.962;7.718;2022-11-20T16:40:23;18.20;;;6.97;;
3781;SDS011;6881;49.962;7.718;2022-11-20T16:42:49;10.43;;;7.40;;
3781;SDS011;6881;49.962;7.718;2022-11-20T16:45:14;13.43;;;7.50;;
3781;SDS011;6881;49.962;7.718;2022-11-20T16:47:40;13.57;;;7.70;;
3781;SDS011;6881;49.962;7.718;2022-11-20T16:50:06;12.40;;;9.67;;
3781;SDS011;6881;49.962;7.718;2022-11-20T16:52:32;6.53;;;5.77;;
3781;SDS011;6881;49.962;7.718;2022-11-20T16:54:57;7.80;;;5.27;;
3781;SDS011;6881;49.962;7.718;2022-11-20T16:57:23;6.13;;;3.87;;
3781;SDS011;6881;49.962;7.718;2022-11-20T16:59:49;4.77;;;3.70;;
3781;SDS011;6881;49.962;7.718;2022-11-20T17:02:14;5.23;;;3.80;;
3781;SDS011;6881;49.962;7.718;2022-11-20T17:04:40;4.60;;;3.13;;
3781;SDS011;6881;49.962;7.718;2022-11-20T17:07:06;5.03;;;3.30;;
3781;SDS011;6881;49.962;7.718;2022-11-20T17:09:31;3.40;;;2.40;;
3781;SDS011;6881;49.962;7.718;2022-11-20T17:11:57;2.57;;;2.37;;
3781;SDS011;6881;49.962;7.718;2022-11-20T17:14:22;4.73;;;3.07;;
3781;SDS011;6881;49.962;7.718;2022-11-20T17:16:48;5.03;;;2.90;;